sensor_id;sensor_type;location;lat;lon;timestamp;P1;durP1;ratioP1;P2;durP2;ratioP2
53598;SDS011;39485;45.702;11.364;2023-06-22T00:02:13;2.10;;;1.90;;
53598;SDS011;39485;45.702;11.364;2023-06-22T00:04:39;1.67;;;1.58;;
53598;SDS011;39485;45.702;11.364;2023-06-22T00:07:05;2.28;;;1.60;;
53598;SDS011;39485;45.702;11.364;2023-06-22T00:09:31;1.27;;;1.17;;
53598;SDS011;39485;45.702;11.364;2023-06-22T00:11:57;1.23;;;1.13;;
53598;SDS011;39485;45.702;11.364;2023-06-22T00:14:23;2.88;;;1.35;;
53598;SDS011;39485;45.702;11.364;2023-06-22T00:16:48;1.80;;;1.63;;
53598;SDS011;39485;45.702;11.364;2023-06-22T00:19:15;1.70;;;1.60;;
53598;SDS011;39485;45.702;11.364;2023-06-22T00:21:40;2.65;;;1.23;;
53598;SDS011;39485;45.702;11.364;2023-06-22T00:24:07;7.43;;;1.38;;
53598;SDS011;39485;45.702;11.364;2023-06-22T00:26:33;1.27;;;1.13;;
53598;SDS011;39485;45.702;11.364;2023-06-22T00:28:59;2.20;;;1.15;;
53598;SDS011;39485;45.702;11.364;2023-06-22T00:31:24;1.70;;;1.60;;
53598;SDS011;39485;45.702;11.364;2023-06-22T00:33:50;3.30;;;1.92;;
53598;SDS011;39485;45.702;11.364;2023-06-22T00:36:16;1.25;;;1.15;;
53598;SDS011;39485;45.702;11.364;2023-06-22T00:38:42;2.05;;;1.45;;
53598;SDS011;39485;45.702;11.364;2023-06-22T00:41:08;1.95;;;1.02;;
53598;SDS011;39485;45.702;11.364;2023-06-22T00:43:34;3.03;;;2.17;;
53598;SDS011;39485;45.702;11.364;2023-06-22T00:46:00;0.95;;;0.95;;
53598;SDS011;39485;45.702;11.364;2023-06-22T00:48:26;1.13;;;1.08;;
53598;SDS011;39485;45.702;11.364;2023-06-22T00:50:52;0.80;;;0.80;;
53598;SDS011;39485;45.702;11.364;2023-06-22T00:53:20;2.22;;;1.52;;
53598;SDS011;39485;45.702;11.364;2023-06-22T00:55:46;2.35;;;1.42;;
53598;SDS011;39485;45.702;11.364;2023-06-22T00:58:12;4.05;;;2.58;;
53598;SDS011;39485;45.702;11.364;2023-06-22T01:00:39;1.50;;;1.38;;
53598;SDS011;39485;45.702;11.364;2023-06-22T01:03:06;1.55;;;1.45;;
53598;SDS011;39485;45.702;11.364;2023-06-22T01:05:35;1.88;;;1.40;;
53598;SDS011;39485;45.702;11.364;2023-06-22T01:08:07;1.77;;;1.48;;
53598;SDS011;39485;45.702;11.364;2023-06-22T01:14:00;11.95;;;2.22;;
53598;SDS011;39485;45.702;11.364;2023-06-22T01:16:37;0.88;;;0.80;;
53598;SDS011;39485;45.702;11.364;2023-06-22T01:21:49;2.35;;;1.48;;
53598;SDS011;39485;45.702;11.364;2023-06-22T01:24:18;1.27;;;1.23;;
53598;SDS011;39485;45.702;11.364;2023-06-22T01:29:30;0.95;;;0.93;;
53598;SDS011;39485;45.702;11.364;2023-06-22T01:31:57;2.28;;;1.33;;
53598;SDS011;39485;45.702;11.364;2023-06-22T01:34:26;6.32;;;1.92;;
53598;SDS011;39485;45.702;11.364;2023-06-22T01:36:54;1.55;;;1.45;;
53598;SDS011;39485;45.702;11.364;2023-06-22T01:39:20;1.65;;;1.52;;
53598;SDS011;39485;45.702;11.364;2023-06-22T01:41:47;1.38;;;1.27;;
53598;SDS011;39485;45.702;11.364;2023-06-22T01:44:13;2.08;;;1.85;;
53598;SDS011;39485;45.702;11.364;2023-06-22T01:46:39;2.17;;;1.70;;
53598;SDS011;39485;45.702;11.364;2023-06-22T01:49:05;2.00;;;1.63;;
53598;SDS011;39485;45.702;11.364;2023-06-22T01:51:31;1.73;;;1.63;;
53598;SDS011;39485;45.702;11.364;2023-06-22T01:53:57;1.52;;;1.38;;
53598;SDS011;39485;45.702;11.364;2023-06-22T01:56:23;2.70;;;1.42;;
53598;SDS011;39485;45.702;11.364;2023-06-22T01:58:55;0.60;;;0.60;;
53598;SDS011;39485;45.702;11.364;2023-06-22T02:01:35;2.53;;;1.85;;
53598;SDS011;39485;45.702;11.364;2023-06-22T02:04:11;5.72;;;1.38;;
53598;SDS011;39485;45.702;11.364;2023-06-22T02:06:44;1.70;;;1.60;;
53598;SDS011;39485;45.702;11.364;2023-06-22T02:09:15;1.48;;;1.17;;
53598;SDS011;39485;45.702;11.364;2023-06-22T02:11:43;1.73;;;1.63;;
53598;SDS011;39485;45.702;11.364;2023-06-22T02:14:12;1.55;;;1.45;;
53598;SDS011;39485;45.702;11.364;2023-06-22T02:16:38;1.23;;;1.13;;
53598;SDS011;39485;45.702;11.364;2023-06-22T02:19:05;2.00;;;1.88;;
53598;SDS011;39485;45.702;11.364;2023-06-22T02:21:31;0.85;;;0.85;;
53598;SDS011;39485;45.702;11.364;2023-06-22T02:23:57;2.65;;;2.17;;
53598;SDS011;39485;45.702;11.364;2023-06-22T02:26:24;2.67;;;2.17;;
53598;SDS011;39485;45.702;11.364;2023-06-22T02:28:50;2.33;;;1.25;;
53598;SDS011;39485;45.702;11.364;2023-06-22T02:31:16;1.67;;;1.58;;
53598;SDS011;39485;45.702;11.364;2023-06-22T02:33:42;3.03;;;1.92;;
53598;SDS011;39485;45.702;11.364;2023-06-22T02:36:08;5.70;;;1.83;;
53598;SDS011;39485;45.702;11.364;2023-06-22T02:38:38;3.17;;;1.05;;
53598;SDS011;39485;45.702;11.364;2023-06-22T02:41:05;3.22;;;1.73;;
53598;SDS011;39485;45.702;11.364;2023-06-22T02:43:31;3.55;;;2.08;;
53598;SDS011;39485;45.702;11.364;2023-06-22T02:45:57;2.75;;;1.40;;
53598;SDS011;39485;45.702;11.364;2023-06-22T02:48:23;1.90;;;1.80;;
53598;SDS011;39485;45.702;11.364;2023-06-22T02:50:48;2.95;;;1.95;;
53598;SDS011;39485;45.702;11.364;2023-06-22T02:53:14;2.42;;;2.22;;
53598;SDS011;39485;45.702;11.364;2023-06-22T02:55:39;3.92;;;2.10;;
53598;SDS011;39485;45.702;11.364;2023-06-22T02:58:05;0.90;;;0.90;;
53598;SDS011;39485;45.702;11.364;2023-06-22T03:00:31;0.95;;;0.88;;
53598;SDS011;39485;45.702;11.364;2023-06-22T03:02:57;3.22;;;2.53;;
53598;SDS011;39485;45.702;11.364;2023-06-22T03:05:23;1.40;;;1.25;;
53598;SDS011;39485;45.702;11.364;2023-06-22T03:07:49;2.35;;;2.15;;
53598;SDS011;39485;45.702;11.364;2023-06-22T03:10:16;1.55;;;1.45;;
53598;SDS011;39485;45.702;11.364;2023-06-22T03:12:42;1.77;;;1.67;;
53598;SDS011;39485;45.702;11.364;2023-06-22T03:15:12;2.88;;;1.75;;
53598;SDS011;39485;45.702;11.364;2023-06-22T03:17:38;3.58;;;2.25;;
53598;SDS011;39485;45.702;11.364;2023-06-22T03:20:05;1.73;;;1.42;;
53598;SDS011;39485;45.702;11.364;2023-06-22T03:22:39;3.17;;;2.10;;
53598;SDS011;39485;45.702;11.364;2023-06-22T03:25:06;3.17;;;1.77;;
53598;SDS011;39485;45.702;11.364;2023-06-22T03:27:38;2.15;;;1.92;;
53598;SDS011;39485;45.702;11.364;2023-06-22T03:30:06;3.80;;;2.17;;
53598;SDS011;39485;45.702;11.364;2023-06-22T03:32:33;2.28;;;1.30;;
53598;SDS011;39485;45.702;11.364;2023-06-22T03:34:59;2.65;;;2.45;;
53598;SDS011;39485;45.702;11.364;2023-06-22T03:37:26;1.58;;;1.48;;
53598;SDS011;39485;45.702;11.364;2023-06-22T03:39:52;2.90;;;1.80;;
53598;SDS011;39485;45.702;11.364;2023-06-22T03:42:18;1.67;;;1.58;;
53598;SDS011;39485;45.702;11.364;2023-06-22T03:44:43;2.45;;;1.55;;
53598;SDS011;39485;45.702;11.364;2023-06-22T03:47:09;1.80;;;1.70;;
53598;SDS011;39485;45.702;11.364;2023-06-22T03:49:35;3.47;;;1.80;;
53598;SDS011;39485;45.702;11.364;2023-06-22T03:52:01;3.38;;;1.80;;
53598;SDS011;39485;45.702;11.364;2023-06-22T03:54:28;1.25;;;1.17;;
53598;SDS011;39485;45.702;11.364;2023-06-22T03:56:54;1.95;;;1.65;;
53598;SDS011;39485;45.702;11.364;2023-06-22T03:59:23;1.65;;;1.35;;
53598;SDS011;39485;45.702;11.364;2023-06-22T04:01:50;1.27;;;1.17;;
53598;SDS011;39485;45.702;11.364;2023-06-22T04:04:17;1.52;;;1.42;;
53598;SDS011;39485;45.702;11.364;2023-06-22T04:06:43;1.60;;;1.50;;
53598;SDS011;39485;45.702;11.364;2023-06-22T04:09:08;2.67;;;1.42;;
53598;SDS011;39485;45.702;11.364;2023-06-22T04:11:34;2.33;;;1.88;;
53598;SDS011;39485;45.702;11.364;2023-06-22T04:14:00;2.08;;;1.70;;
53598;SDS011;39485;45.702;11.364;2023-06-22T04:16:26;2.20;;;1.50;;
53598;SDS011;39485;45.702;11.364;2023-06-22T04:18:51;2.58;;;1.75;;
53598;SDS011;39485;45.702;11.364;2023-06-22T04:21:17;2.53;;;1.23;;
53598;SDS011;39485;45.702;11.364;2023-06-22T04:23:44;1.65;;;1.48;;
53598;SDS011;39485;45.702;11.364;2023-06-22T04:26:11;1.02;;;0.90;;
53598;SDS011;39485;45.702;11.364;2023-06-22T04:28:37;2.53;;;1.40;;
53598;SDS011;39485;45.702;11.364;2023-06-22T04:31:04;1.60;;;1.20;;
53598;SDS011;39485;45.702;11.364;2023-06-22T04:33:30;1.35;;;0.68;;
53598;SDS011;39485;45.702;11.364;2023-06-22T04:35:56;1.10;;;0.85;;
53598;SDS011;39485;45.702;11.364;2023-06-22T04:38:22;3.85;;;1.85;;
53598;SDS011;39485;45.702;11.364;2023-06-22T04:40:49;1.55;;;1.50;;
53598;SDS011;39485;45.702;11.364;2023-06-22T04:43:15;1.40;;;1.30;;
53598;SDS011;39485;45.702;11.364;2023-06-22T04:45:41;1.63;;;1.38;;
53598;SDS011;39485;45.702;11.364;2023-06-22T04:48:07;1.42;;;1.33;;
53598;SDS011;39485;45.702;11.364;2023-06-22T04:50:34;1.08;;;1.02;;
53598;SDS011;39485;45.702;11.364;2023-06-22T04:53:04;1.05;;;1.05;;
53598;SDS011;39485;45.702;11.364;2023-06-22T04:55:31;1.40;;;1.00;;
53598;SDS011;39485;45.702;11.364;2023-06-22T04:57:57;1.48;;;1.13;;
53598;SDS011;39485;45.702;11.364;2023-06-22T05:00:29;6.68;;;1.48;;
53598;SDS011;39485;45.702;11.364;2023-06-22T05:02:55;2.28;;;1.15;;
53598;SDS011;39485;45.702;11.364;2023-06-22T05:05:22;1.30;;;1.25;;
53598;SDS011;39485;45.702;11.364;2023-06-22T05:07:49;1.05;;;0.95;;
53598;SDS011;39485;45.702;11.364;2023-06-22T05:10:18;1.17;;;1.08;;
53598;SDS011;39485;45.702;11.364;2023-06-22T05:12:44;2.10;;;1.20;;
53598;SDS011;39485;45.702;11.364;2023-06-22T05:15:11;0.40;;;0.40;;
53598;SDS011;39485;45.702;11.364;2023-06-22T05:17:36;0.80;;;0.80;;
53598;SDS011;39485;45.702;11.364;2023-06-22T05:20:08;0.75;;;0.63;;
53598;SDS011;39485;45.702;11.364;2023-06-22T05:22:35;1.20;;;1.17;;
53598;SDS011;39485;45.702;11.364;2023-06-22T05:25:01;0.60;;;0.52;;
53598;SDS011;39485;45.702;11.364;2023-06-22T05:27:26;0.57;;;0.57;;
53598;SDS011;39485;45.702;11.364;2023-06-22T05:29:52;0.30;;;0.30;;
53598;SDS011;39485;45.702;11.364;2023-06-22T05:32:17;0.70;;;0.70;;
53598;SDS011;39485;45.702;11.364;2023-06-22T05:34:43;0.47;;;0.40;;
53598;SDS011;39485;45.702;11.364;2023-06-22T05:37:09;1.17;;;0.60;;
53598;SDS011;39485;45.702;11.364;2023-06-22T05:39:35;0.70;;;0.70;;
53598;SDS011;39485;45.702;11.364;2023-06-22T05:42:07;0.85;;;0.85;;
53598;SDS011;39485;45.702;11.364;2023-06-22T05:44:33;0.77;;;0.75;;
53598;SDS011;39485;45.702;11.364;2023-06-22T05:46:59;0.70;;;0.70;;
53598;SDS011;39485;45.702;11.364;2023-06-22T05:49:24;0.60;;;0.52;;
53598;SDS011;39485;45.702;11.364;2023-06-22T05:51:54;0.88;;;0.80;;
53598;SDS011;39485;45.702;11.364;2023-06-22T05:54:21;0.43;;;0.43;;
53598;SDS011;39485;45.702;11.364;2023-06-22T05:56:47;0.75;;;0.75;;
53598;SDS011;39485;45.702;11.364;2023-06-22T05:59:13;0.98;;;0.85;;
53598;SDS011;39485;45.702;11.364;2023-06-22T06:01:39;0.73;;;0.73;;
53598;SDS011;39485;45.702;11.364;2023-06-22T06:04:05;1.58;;;0.95;;
53598;SDS011;39485;45.702;11.364;2023-06-22T06:06:33;1.92;;;1.75;;
53598;SDS011;39485;45.702;11.364;2023-06-22T06:08:59;0.65;;;0.65;;
53598;SDS011;39485;45.702;11.364;2023-06-22T06:11:25;0.57;;;0.57;;
53598;SDS011;39485;45.702;11.364;2023-06-22T06:13:51;1.27;;;1.17;;
53598;SDS011;39485;45.702;11.364;2023-06-22T06:16:17;1.70;;;1.08;;
53598;SDS011;39485;45.702;11.364;2023-06-22T06:18:42;1.17;;;1.00;;
53598;SDS011;39485;45.702;11.364;2023-06-22T06:21:08;1.65;;;1.20;;
53598;SDS011;39485;45.702;11.364;2023-06-22T06:23:34;1.27;;;0.77;;
53598;SDS011;39485;45.702;11.364;2023-06-22T06:25:59;1.83;;;1.10;;
53598;SDS011;39485;45.702;11.364;2023-06-22T06:28:26;0.77;;;0.77;;
53598;SDS011;39485;45.702;11.364;2023-06-22T06:30:52;2.95;;;1.40;;
53598;SDS011;39485;45.702;11.364;2023-06-22T06:33:18;0.85;;;0.85;;
53598;SDS011;39485;45.702;11.364;2023-06-22T06:35:45;1.42;;;1.00;;
53598;SDS011;39485;45.702;11.364;2023-06-22T06:38:11;1.05;;;0.93;;
53598;SDS011;39485;45.702;11.364;2023-06-22T06:40:37;1.92;;;0.70;;
53598;SDS011;39485;45.702;11.364;2023-06-22T06:43:02;0.75;;;0.75;;
53598;SDS011;39485;45.702;11.364;2023-06-22T06:45:28;3.28;;;0.82;;
53598;SDS011;39485;45.702;11.364;2023-06-22T06:47:56;1.92;;;1.25;;
53598;SDS011;39485;45.702;11.364;2023-06-22T06:50:22;0.75;;;0.75;;
53598;SDS011;39485;45.702;11.364;2023-06-22T06:52:47;1.25;;;0.73;;
53598;SDS011;39485;45.702;11.364;2023-06-22T06:55:15;0.95;;;0.93;;
53598;SDS011;39485;45.702;11.364;2023-06-22T06:57:41;0.55;;;0.55;;
53598;SDS011;39485;45.702;11.364;2023-06-22T07:00:08;0.88;;;0.88;;
53598;SDS011;39485;45.702;11.364;2023-06-22T07:02:39;1.10;;;0.75;;
53598;SDS011;39485;45.702;11.364;2023-06-22T07:05:06;1.75;;;0.85;;
53598;SDS011;39485;45.702;11.364;2023-06-22T07:07:32;0.73;;;0.60;;
53598;SDS011;39485;45.702;11.364;2023-06-22T07:09:59;0.98;;;0.98;;
53598;SDS011;39485;45.702;11.364;2023-06-22T07:12:25;0.30;;;0.30;;
53598;SDS011;39485;45.702;11.364;2023-06-22T07:14:51;1.48;;;0.88;;
53598;SDS011;39485;45.702;11.364;2023-06-22T07:17:18;0.65;;;0.35;;
53598;SDS011;39485;45.702;11.364;2023-06-22T07:19:43;0.47;;;0.45;;
53598;SDS011;39485;45.702;11.364;2023-06-22T07:22:09;0.77;;;0.77;;
53598;SDS011;39485;45.702;11.364;2023-06-22T07:24:35;0.50;;;0.50;;
53598;SDS011;39485;45.702;11.364;2023-06-22T07:27:02;0.85;;;0.85;;
53598;SDS011;39485;45.702;11.364;2023-06-22T07:29:28;0.20;;;0.20;;
53598;SDS011;39485;45.702;11.364;2023-06-22T07:31:54;0.75;;;0.60;;
53598;SDS011;39485;45.702;11.364;2023-06-22T07:34:21;0.70;;;0.70;;
53598;SDS011;39485;45.702;11.364;2023-06-22T07:36:47;0.52;;;0.30;;
53598;SDS011;39485;45.702;11.364;2023-06-22T07:39:13;0.05;;;0.05;;
53598;SDS011;39485;45.702;11.364;2023-06-22T07:41:39;0.45;;;0.40;;
53598;SDS011;39485;45.702;11.364;2023-06-22T07:44:06;0.88;;;0.60;;
53598;SDS011;39485;45.702;11.364;2023-06-22T07:46:32;1.98;;;0.95;;
53598;SDS011;39485;45.702;11.364;2023-06-22T07:48:58;0.55;;;0.55;;
53598;SDS011;39485;45.702;11.364;2023-06-22T07:51:24;0.55;;;0.55;;
53598;SDS011;39485;45.702;11.364;2023-06-22T07:53:50;1.08;;;0.70;;
53598;SDS011;39485;45.702;11.364;2023-06-22T07:56:16;0.88;;;0.80;;
53598;SDS011;39485;45.702;11.364;2023-06-22T07:58:45;0.57;;;0.40;;
53598;SDS011;39485;45.702;11.364;2023-06-22T08:01:12;0.57;;;0.38;;
53598;SDS011;39485;45.702;11.364;2023-06-22T08:03:38;0.98;;;0.85;;
53598;SDS011;39485;45.702;11.364;2023-06-22T08:06:04;0.30;;;0.30;;
53598;SDS011;39485;45.702;11.364;2023-06-22T08:08:31;0.60;;;0.60;;
53598;SDS011;39485;45.702;11.364;2023-06-22T08:10:56;0.32;;;0.32;;
53598;SDS011;39485;45.702;11.364;2023-06-22T08:13:22;0.32;;;0.32;;
53598;SDS011;39485;45.702;11.364;2023-06-22T08:15:48;0.38;;;0.38;;
53598;SDS011;39485;45.702;11.364;2023-06-22T08:18:14;0.55;;;0.50;;
53598;SDS011;39485;45.702;11.364;2023-06-22T08:20:41;0.75;;;0.70;;
53598;SDS011;39485;45.702;11.364;2023-06-22T08:23:07;0.60;;;0.60;;
53598;SDS011;39485;45.702;11.364;2023-06-22T08:25:36;1.60;;;0.68;;
53598;SDS011;39485;45.702;11.364;2023-06-22T08:28:02;0.90;;;0.73;;
53598;SDS011;39485;45.702;11.364;2023-06-22T08:30:28;0.55;;;0.55;;
53598;SDS011;39485;45.702;11.364;2023-06-22T08:32:54;0.88;;;0.70;;
53598;SDS011;39485;45.702;11.364;2023-06-22T08:35:20;1.20;;;0.82;;
53598;SDS011;39485;45.702;11.364;2023-06-22T08:37:49;0.98;;;0.98;;
53598;SDS011;39485;45.702;11.364;2023-06-22T08:40:19;3.92;;;2.05;;
53598;SDS011;39485;45.702;11.364;2023-06-22T08:42:46;0.52;;;0.52;;
53598;SDS011;39485;45.702;11.364;2023-06-22T08:45:12;2.85;;;1.23;;
53598;SDS011;39485;45.702;11.364;2023-06-22T08:47:38;1.70;;;1.60;;
53598;SDS011;39485;45.702;11.364;2023-06-22T08:50:05;0.68;;;0.60;;
53598;SDS011;39485;45.702;11.364;2023-06-22T08:52:32;0.75;;;0.75;;
53598;SDS011;39485;45.702;11.364;2023-06-22T08:54:58;1.23;;;1.00;;
53598;SDS011;39485;45.702;11.364;2023-06-22T08:57:24;2.08;;;1.40;;
53598;SDS011;39485;45.702;11.364;2023-06-22T08:59:49;3.95;;;1.42;;
53598;SDS011;39485;45.702;11.364;2023-06-22T09:02:17;1.33;;;0.95;;
53598;SDS011;39485;45.702;11.364;2023-06-22T09:04:44;1.05;;;0.60;;
53598;SDS011;39485;45.702;11.364;2023-06-22T09:07:13;0.75;;;0.75;;
53598;SDS011;39485;45.702;11.364;2023-06-22T09:09:39;0.75;;;0.68;;
53598;SDS011;39485;45.702;11.364;2023-06-22T09:12:05;1.77;;;1.50;;
53598;SDS011;39485;45.702;11.364;2023-06-22T09:14:31;0.95;;;0.57;;
53598;SDS011;39485;45.702;11.364;2023-06-22T09:16:56;1.20;;;0.88;;
53598;SDS011;39485;45.702;11.364;2023-06-22T09:19:22;5.45;;;1.00;;
53598;SDS011;39485;45.702;11.364;2023-06-22T09:21:48;0.65;;;0.65;;
53598;SDS011;39485;45.702;11.364;2023-06-22T09:24:13;0.88;;;0.68;;
53598;SDS011;39485;45.702;11.364;2023-06-22T09:26:39;0.57;;;0.57;;
53598;SDS011;39485;45.702;11.364;2023-06-22T09:29:05;3.95;;;1.17;;
53598;SDS011;39485;45.702;11.364;2023-06-22T09:31:31;0.50;;;0.50;;
53598;SDS011;39485;45.702;11.364;2023-06-22T09:33:57;0.98;;;0.77;;
53598;SDS011;39485;45.702;11.364;2023-06-22T09:36:22;0.50;;;0.50;;
53598;SDS011;39485;45.702;11.364;2023-06-22T09:38:49;1.02;;;0.82;;
53598;SDS011;39485;45.702;11.364;2023-06-22T09:41:20;0.88;;;0.50;;
53598;SDS011;39485;45.702;11.364;2023-06-22T09:43:47;0.60;;;0.52;;
53598;SDS011;39485;45.702;11.364;2023-06-22T09:46:15;0.30;;;0.30;;
53598;SDS011;39485;45.702;11.364;2023-06-22T09:48:42;4.07;;;0.63;;
53598;SDS011;39485;45.702;11.364;2023-06-22T09:51:07;1.27;;;1.00;;
53598;SDS011;39485;45.702;11.364;2023-06-22T09:53:33;0.80;;;0.80;;
53598;SDS011;39485;45.702;11.364;2023-06-22T09:56:03;0.60;;;0.60;;
53598;SDS011;39485;45.702;11.364;2023-06-22T09:58:28;1.02;;;0.85;;
53598;SDS011;39485;45.702;11.364;2023-06-22T10:00:54;1.02;;;0.77;;
53598;SDS011;39485;45.702;11.364;2023-06-22T10:03:20;1.58;;;1.13;;
53598;SDS011;39485;45.702;11.364;2023-06-22T10:05:46;2.60;;;1.15;;
53598;SDS011;39485;45.702;11.364;2023-06-22T10:08:12;1.10;;;0.73;;
53598;SDS011;39485;45.702;11.364;2023-06-22T10:10:37;0.68;;;0.68;;
53598;SDS011;39485;45.702;11.364;2023-06-22T10:13:07;2.15;;;1.05;;
53598;SDS011;39485;45.702;11.364;2023-06-22T10:18:03;3.40;;;0.68;;
53598;SDS011;39485;45.702;11.364;2023-06-22T10:20:29;3.20;;;1.05;;
53598;SDS011;39485;45.702;11.364;2023-06-22T10:22:55;0.95;;;0.73;;
53598;SDS011;39485;45.702;11.364;2023-06-22T10:25:21;0.57;;;0.57;;
53598;SDS011;39485;45.702;11.364;2023-06-22T10:27:47;1.40;;;0.70;;
53598;SDS011;39485;45.702;11.364;2023-06-22T10:30:13;0.60;;;0.60;;
53598;SDS011;39485;45.702;11.364;2023-06-22T10:32:40;1.17;;;0.90;;
53598;SDS011;39485;45.702;11.364;2023-06-22T10:35:08;0.68;;;0.68;;
53598;SDS011;39485;45.702;11.364;2023-06-22T10:37:35;0.65;;;0.65;;
53598;SDS011;39485;45.702;11.364;2023-06-22T10:40:02;1.33;;;0.95;;
53598;SDS011;39485;45.702;11.364;2023-06-22T10:42:29;0.40;;;0.40;;
53598;SDS011;39485;45.702;11.364;2023-06-22T10:44:54;0.52;;;0.52;;
53598;SDS011;39485;45.702;11.364;2023-06-22T10:47:20;0.90;;;0.75;;
53598;SDS011;39485;45.702;11.364;2023-06-22T10:49:46;0.40;;;0.40;;
53598;SDS011;39485;45.702;11.364;2023-06-22T10:52:12;0.90;;;0.73;;
53598;SDS011;39485;45.702;11.364;2023-06-22T10:54:37;1.50;;;0.95;;
53598;SDS011;39485;45.702;11.364;2023-06-22T10:57:03;1.30;;;0.65;;
53598;SDS011;39485;45.702;11.364;2023-06-22T10:59:29;1.23;;;0.75;;
53598;SDS011;39485;45.702;11.364;2023-06-22T11:01:55;0.85;;;0.65;;
53598;SDS011;39485;45.702;11.364;2023-06-22T11:04:22;0.70;;;0.70;;
53598;SDS011;39485;45.702;11.364;2023-06-22T11:06:48;1.38;;;1.13;;
53598;SDS011;39485;45.702;11.364;2023-06-22T11:09:14;0.50;;;0.50;;
53598;SDS011;39485;45.702;11.364;2023-06-22T11:11:49;1.15;;;0.63;;
53598;SDS011;39485;45.702;11.364;2023-06-22T11:14:18;1.48;;;1.38;;
53598;SDS011;39485;45.702;11.364;2023-06-22T11:16:44;1.60;;;0.80;;
53598;SDS011;39485;45.702;11.364;2023-06-22T11:19:09;0.98;;;0.98;;
53598;SDS011;39485;45.702;11.364;2023-06-22T11:21:35;1.98;;;0.95;;
53598;SDS011;39485;45.702;11.364;2023-06-22T11:24:01;1.38;;;0.93;;
53598;SDS011;39485;45.702;11.364;2023-06-22T11:26:26;0.50;;;0.50;;
53598;SDS011;39485;45.702;11.364;2023-06-22T11:28:52;1.30;;;0.90;;
53598;SDS011;39485;45.702;11.364;2023-06-22T11:31:18;0.55;;;0.55;;
53598;SDS011;39485;45.702;11.364;2023-06-22T11:33:44;3.80;;;1.00;;
53598;SDS011;39485;45.702;11.364;2023-06-22T11:36:11;0.65;;;0.60;;
53598;SDS011;39485;45.702;11.364;2023-06-22T11:38:37;0.80;;;0.80;;
53598;SDS011;39485;45.702;11.364;2023-06-22T11:41:05;0.75;;;0.75;;
53598;SDS011;39485;45.702;11.364;2023-06-22T11:43:33;0.63;;;0.60;;
53598;SDS011;39485;45.702;11.364;2023-06-22T11:46:00;0.57;;;0.57;;
53598;SDS011;39485;45.702;11.364;2023-06-22T11:48:29;1.40;;;0.90;;
53598;SDS011;39485;45.702;11.364;2023-06-22T11:50:55;1.02;;;0.75;;
53598;SDS011;39485;45.702;11.364;2023-06-22T11:53:22;0.80;;;0.80;;
53598;SDS011;39485;45.702;11.364;2023-06-22T11:55:49;1.67;;;0.45;;
53598;SDS011;39485;45.702;11.364;2023-06-22T11:58:15;1.38;;;1.25;;
53598;SDS011;39485;45.702;11.364;2023-06-22T12:00:40;0.85;;;0.73;;
53598;SDS011;39485;45.702;11.364;2023-06-22T12:03:06;1.65;;;0.93;;
53598;SDS011;39485;45.702;11.364;2023-06-22T12:05:32;1.65;;;1.02;;
53598;SDS011;39485;45.702;11.364;2023-06-22T12:07:58;1.35;;;0.88;;
53598;SDS011;39485;45.702;11.364;2023-06-22T12:10:25;1.70;;;1.25;;
53598;SDS011;39485;45.702;11.364;2023-06-22T12:12:53;0.85;;;0.52;;
53598;SDS011;39485;45.702;11.364;2023-06-22T12:15:19;1.27;;;0.75;;
53598;SDS011;39485;45.702;11.364;2023-06-22T12:17:45;1.60;;;0.73;;
53598;SDS011;39485;45.702;11.364;2023-06-22T12:20:11;0.38;;;0.38;;
53598;SDS011;39485;45.702;11.364;2023-06-22T12:22:36;1.60;;;1.10;;
53598;SDS011;39485;45.702;11.364;2023-06-22T12:25:03;0.90;;;0.70;;
53598;SDS011;39485;45.702;11.364;2023-06-22T12:27:29;0.30;;;0.30;;
53598;SDS011;39485;45.702;11.364;2023-06-22T12:29:57;0.13;;;0.13;;
53598;SDS011;39485;45.702;11.364;2023-06-22T12:32:23;0.43;;;0.43;;
53598;SDS011;39485;45.702;11.364;2023-06-22T12:34:49;0.38;;;0.38;;
53598;SDS011;39485;45.702;11.364;2023-06-22T12:37:15;1.02;;;0.40;;
53598;SDS011;39485;45.702;11.364;2023-06-22T12:39:40;0.95;;;0.60;;
53598;SDS011;39485;45.702;11.364;2023-06-22T12:42:06;0.32;;;0.32;;
53598;SDS011;39485;45.702;11.364;2023-06-22T12:44:34;1.17;;;1.08;;
53598;SDS011;39485;45.702;11.364;2023-06-22T12:47:00;1.58;;;0.60;;
53598;SDS011;39485;45.702;11.364;2023-06-22T12:49:25;0.52;;;0.52;;
53598;SDS011;39485;45.702;11.364;2023-06-22T12:51:51;0.32;;;0.32;;
53598;SDS011;39485;45.702;11.364;2023-06-22T12:54:17;0.65;;;0.45;;
53598;SDS011;39485;45.702;11.364;2023-06-22T12:56:43;0.50;;;0.50;;
53598;SDS011;39485;45.702;11.364;2023-06-22T12:59:12;0.52;;;0.52;;
53598;SDS011;39485;45.702;11.364;2023-06-22T13:01:37;1.08;;;0.70;;
53598;SDS011;39485;45.702;11.364;2023-06-22T13:04:03;0.45;;;0.45;;
53598;SDS011;39485;45.702;11.364;2023-06-22T13:06:29;0.57;;;0.57;;
53598;SDS011;39485;45.702;11.364;2023-06-22T13:08:55;0.30;;;0.30;;
53598;SDS011;39485;45.702;11.364;2023-06-22T13:11:21;0.30;;;0.30;;
53598;SDS011;39485;45.702;11.364;2023-06-22T13:13:46;0.40;;;0.40;;
53598;SDS011;39485;45.702;11.364;2023-06-22T13:16:12;0.57;;;0.57;;
53598;SDS011;39485;45.702;11.364;2023-06-22T13:18:38;0.82;;;0.77;;
53598;SDS011;39485;45.702;11.364;2023-06-22T13:21:04;2.70;;;0.80;;
53598;SDS011;39485;45.702;11.364;2023-06-22T13:23:30;1.17;;;1.05;;
53598;SDS011;39485;45.702;11.364;2023-06-22T13:25:57;0.47;;;0.45;;
53598;SDS011;39485;45.702;11.364;2023-06-22T13:28:23;0.80;;;0.80;;
53598;SDS011;39485;45.702;11.364;2023-06-22T13:30:48;0.80;;;0.77;;
53598;SDS011;39485;45.702;11.364;2023-06-22T13:33:14;1.33;;;0.80;;
53598;SDS011;39485;45.702;11.364;2023-06-22T13:35:40;0.73;;;0.70;;
53598;SDS011;39485;45.702;11.364;2023-06-22T13:38:07;1.45;;;0.75;;
53598;SDS011;39485;45.702;11.364;2023-06-22T13:40:34;1.58;;;1.05;;
53598;SDS011;39485;45.702;11.364;2023-06-22T13:43:00;0.90;;;0.60;;
53598;SDS011;39485;45.702;11.364;2023-06-22T13:45:26;0.95;;;0.77;;
53598;SDS011;39485;45.702;11.364;2023-06-22T13:47:52;0.47;;;0.47;;
53598;SDS011;39485;45.702;11.364;2023-06-22T13:50:18;0.47;;;0.47;;
53598;SDS011;39485;45.702;11.364;2023-06-22T13:52:43;0.52;;;0.40;;
53598;SDS011;39485;45.702;11.364;2023-06-22T13:55:09;0.60;;;0.60;;
53598;SDS011;39485;45.702;11.364;2023-06-22T13:57:35;0.38;;;0.20;;
53598;SDS011;39485;45.702;11.364;2023-06-22T14:00:02;0.65;;;0.55;;
53598;SDS011;39485;45.702;11.364;2023-06-22T14:02:30;0.73;;;0.73;;
53598;SDS011;39485;45.702;11.364;2023-06-22T14:04:56;0.30;;;0.30;;
53598;SDS011;39485;45.702;11.364;2023-06-22T14:07:22;0.30;;;0.30;;
53598;SDS011;39485;45.702;11.364;2023-06-22T14:09:49;0.17;;;0.17;;
53598;SDS011;39485;45.702;11.364;2023-06-22T14:12:15;0.60;;;0.60;;
53598;SDS011;39485;45.702;11.364;2023-06-22T14:14:42;1.00;;;0.75;;
53598;SDS011;39485;45.702;11.364;2023-06-22T14:17:08;2.58;;;1.17;;
53598;SDS011;39485;45.702;11.364;2023-06-22T14:19:35;0.65;;;0.57;;
53598;SDS011;39485;45.702;11.364;2023-06-22T14:22:01;2.95;;;0.95;;
53598;SDS011;39485;45.702;11.364;2023-06-22T14:24:27;1.13;;;1.08;;
53598;SDS011;39485;45.702;11.364;2023-06-22T14:26:53;0.70;;;0.43;;
53598;SDS011;39485;45.702;11.364;2023-06-22T14:29:20;0.65;;;0.65;;
53598;SDS011;39485;45.702;11.364;2023-06-22T14:31:49;0.32;;;0.32;;
53598;SDS011;39485;45.702;11.364;2023-06-22T14:34:15;0.40;;;0.28;;
53598;SDS011;39485;45.702;11.364;2023-06-22T14:36:41;0.40;;;0.40;;
53598;SDS011;39485;45.702;11.364;2023-06-22T14:39:07;1.10;;;1.00;;
53598;SDS011;39485;45.702;11.364;2023-06-22T14:41:33;1.40;;;0.93;;